Cape Lisburne LRRS

About
Name: Cape Lisburne LRRS
Identifier:  LUR/PALU
Owner:  U.S. Air Force
Public/Private:  Military
Local Time:  20. Aug 06:03 AKDT
Description: Cape Lisburne LRRS Airport is a military airport located on Cape Lisburne, at the northwest point of the Lisburne Peninsula in the North Slope Borough of the U.S. state of Alaska. The airport is owned by the U.S. Air Force. It is also known as Cape Lisburne Airport.
Source: Wikipedia
Location
Cape Lisburne
  United States

Runways
Identifier Length (m/ft) Surface
8/26 4,800/4,800 Gravel
Flights per Day
0 flights
Distance: 64km (40mi)
Punctuality
0% (0 flights per day delayed)
Delay Average: 11 minutes
Current Weather
 8 C (Humidity: 81%)
  15kt (27km/h / 17mph) from 60°
  Overcast at 1,500 feet (457 meter)
  16km (10 mi.)
 METAR PALU 201342Z AUTO 06015KT 10SM OVC015 08/05 A3016 RMK AO2 SLP212

Current Flights

Departures
Number Departure To Airline
Arrivals
Number Arrival From Airline

Current Delays

Departures
N/A
Arrivals
N/A

Destinations

Top Destinations
Airport Flights
per week
Seats
per week
  Kotzebue (OTZ) 0 - 0 0

Airlines & Planes

Top Airlines
Airline Flights
per Day
Seats
per Day
Bering Air 0 -
Top Plane Types
Model Flights Seats
Beech B200 Super King Air 0.0/day - 0